createdAt,value
2019-01-17T10:40:13.229Z,31.99
2019-01-17T12:13:38.912Z,40.55
2019-01-17T12:17:02.993Z,40.12
2019-01-17T12:53:40.534Z,43.09
2019-01-17T12:56:12.042Z,42.61
2019-01-17T12:58:43.326Z,41.96
2019-01-17T13:01:14.411Z,41.98
2019-01-17T13:03:45.323Z,41.54
2019-01-17T13:06:16.431Z,40.76
2019-01-17T13:08:47.484Z,41.53
2019-01-17T13:11:18.929Z,41.31
2019-01-17T13:13:50.205Z,41.10
2019-01-17T13:16:21.471Z,40.98
2019-01-17T13:18:52.574Z,40.33
2019-01-17T13:21:23.660Z,40.93
2019-01-17T13:23:54.972Z,41.24
2019-01-17T13:26:26.123Z,41.10
2019-01-17T13:28:57.383Z,40.68
2019-01-17T13:31:30.448Z,40.74
2019-01-17T13:34:03.365Z,40.09
2019-01-17T13:36:40.280Z,39.37
2019-01-17T13:39:11.186Z,37.85
2019-01-17T13:41:44.344Z,37.26
2019-01-17T13:44:17.409Z,36.68
2019-01-17T13:46:51.255Z,37.50
2019-01-17T13:49:24.835Z,37.14
2019-01-17T13:51:58.081Z,35.99
2019-01-17T13:54:32.177Z,34.99
2019-01-17T13:57:07.703Z,35.46
2019-01-17T13:59:42.299Z,35.62
2019-01-17T14:02:18.215Z,36.58
2019-01-17T14:04:52.895Z,35.92
2019-01-17T14:07:26.601Z,35.95
2019-01-17T14:10:01.412Z,36.96
2019-01-17T14:12:34.789Z,36.25
2019-01-17T14:15:28.173Z,36.26
2019-01-17T14:18:02.215Z,37.49
2019-01-17T14:20:35.439Z,37.89
2019-01-17T14:23:10.244Z,38.88
2019-01-17T14:25:43.486Z,39.82
2019-01-17T14:28:15.650Z,39.19
2019-01-17T14:30:48.835Z,39.26
2019-01-17T14:33:22.482Z,40.44
2019-01-17T14:35:55.691Z,40.91
2019-01-17T14:38:27.861Z,40.99
2019-01-17T14:41:00.643Z,41.44
2019-01-17T14:43:34.332Z,41.65
2019-01-17T14:46:08.099Z,41.60
2019-01-17T14:48:43.153Z,42.19
2019-01-17T14:51:16.777Z,42.82
2019-01-17T14:53:51.036Z,43.40
2019-01-17T14:56:23.554Z,43.68
2019-01-17T14:58:58.405Z,44.00
2019-01-17T15:01:31.400Z,44.48
2019-01-17T15:04:04.885Z,45.48
2019-01-17T15:06:38.833Z,45.59
2019-01-17T15:09:11.841Z,45.92
2019-01-17T15:11:45.387Z,47.27
2019-01-17T15:14:32.443Z,47.84
2019-01-17T15:17:07.447Z,48.45
2019-01-17T15:19:43.476Z,48.38
2019-01-17T15:22:17.001Z,48.38
2019-01-17T15:24:50.522Z,48.69
2019-01-17T15:27:27.415Z,49.05
2019-01-17T15:29:59.410Z,49.28
2019-01-17T15:32:33.696Z,49.37
2019-01-17T15:35:07.908Z,50.31
2019-01-17T15:37:41.813Z,50.31
2019-01-17T15:40:18.665Z,50.15
2019-01-17T15:42:52.607Z,50.99
2019-01-17T15:45:25.787Z,52.13
2019-01-17T15:47:58.027Z,52.57
2019-01-17T15:50:31.065Z,53.62
2019-01-17T15:53:04.662Z,53.26
2019-01-17T15:55:38.657Z,53.56
2019-01-17T15:58:11.327Z,54.35
2019-01-17T16:00:45.511Z,54.99
2019-01-17T16:03:18.600Z,55.10
2019-01-17T16:05:51.899Z,55.18
2019-01-17T16:08:24.152Z,55.77
2019-01-17T16:10:56.940Z,55.87
2019-01-17T16:13:30.281Z,57.00
2019-01-17T16:16:07.862Z,57.30
2019-01-17T16:18:41.322Z,57.68
2019-01-17T16:21:16.683Z,58.04
2019-01-17T16:23:50.110Z,57.99
2019-01-17T16:26:23.504Z,58.04
2019-01-17T16:28:57.194Z,58.01
2019-01-17T16:31:29.891Z,58.23
2019-01-17T16:34:03.802Z,57.86
2019-01-17T16:36:37.566Z,58.36
2019-01-17T16:39:10.913Z,58.74
2019-01-17T16:41:44.650Z,58.43
2019-01-17T16:44:18.182Z,58.82
2019-01-17T16:46:51.568Z,59.49
2019-01-17T16:49:25.131Z,58.31
2019-01-17T16:51:58.279Z,58.48
2019-01-17T16:54:30.903Z,58.89
2019-01-17T16:57:04.003Z,59.06
2019-01-17T16:59:37.022Z,58.10
2019-01-17T17:02:09.901Z,58.11
2019-01-17T17:04:43.695Z,59.56
2019-01-17T17:07:18.056Z,59.42
2019-01-17T17:09:52.601Z,59.20
2019-01-17T17:12:26.281Z,59.07
2019-01-17T17:15:10.031Z,59.56
2019-01-17T17:17:45.953Z,59.23
2019-01-17T17:20:22.412Z,58.99
2019-01-17T17:22:55.724Z,58.27
2019-01-17T17:25:30.271Z,58.57
2019-01-17T17:28:03.707Z,59.64
2019-01-17T17:30:37.167Z,60.36
2019-01-17T17:33:09.859Z,60.46
2019-01-17T17:35:43.679Z,60.39
2019-01-17T17:38:17.251Z,60.49
2019-01-17T17:40:51.181Z,60.37
2019-01-17T17:43:24.523Z,60.24
2019-01-17T17:45:58.628Z,60.53
2019-01-17T17:48:33.407Z,60.90
2019-01-17T17:51:07.853Z,60.48
2019-01-17T17:53:41.135Z,61.03
2019-01-17T17:56:16.917Z,60.07
2019-01-17T17:58:50.332Z,60.11
2019-01-17T18:01:47.937Z,60.66
2019-01-17T18:04:22.530Z,61.38
2019-01-17T18:06:56.056Z,60.55
2019-01-17T18:09:30.167Z,60.29
2019-01-17T18:12:03.399Z,59.82
2019-01-17T18:14:49.962Z,60.30
2019-01-17T18:17:36.270Z,60.02
2019-01-17T18:20:20.649Z,61.00
2019-01-17T18:22:59.128Z,60.99
2019-01-17T18:25:32.486Z,61.05
2019-01-17T18:28:08.825Z,61.21
2019-01-17T18:30:41.744Z,60.53
2019-01-17T18:33:16.182Z,59.95
2019-01-17T18:35:50.137Z,60.46
2019-01-17T18:38:23.538Z,60.61
2019-01-17T18:40:57.292Z,60.61
2019-01-17T18:43:32.422Z,60.55
2019-01-17T18:46:06.094Z,60.62
2019-01-17T18:48:40.496Z,61.02
2019-01-17T18:51:15.702Z,60.51
2019-01-17T18:53:49.115Z,60.79
2019-01-17T18:56:22.180Z,60.98
2019-01-17T18:58:56.781Z,61.21
2019-01-17T19:01:31.892Z,61.07
2019-01-17T19:04:05.200Z,61.31
2019-01-17T19:06:39.058Z,61.37
2019-01-17T19:09:14.649Z,61.03
2019-01-17T19:11:48.071Z,60.70
2019-01-17T19:14:28.109Z,61.38
2019-01-17T19:17:02.449Z,61.71
2019-01-17T19:19:36.101Z,61.67
2019-01-17T19:22:09.391Z,62.34
2019-01-17T19:24:42.961Z,62.07
2019-01-17T19:27:16.261Z,61.45
2019-01-17T19:29:51.162Z,62.21
2019-01-17T19:32:24.386Z,61.63
2019-01-17T19:34:56.883Z,61.57
2019-01-17T19:37:32.994Z,61.50
2019-01-17T19:40:07.264Z,61.99
2019-01-17T19:42:41.165Z,62.14
2019-01-17T19:45:15.424Z,62.18
2019-01-17T19:47:48.864Z,61.59
2019-01-17T19:50:32.847Z,61.34
2019-01-17T19:53:06.159Z,60.34
2019-01-17T19:55:39.747Z,60.00
2019-01-17T19:58:13.228Z,60.61
2019-01-17T20:00:46.879Z,61.85
2019-01-17T20:03:20.295Z,62.43
2019-01-17T20:05:53.821Z,63.09
2019-01-17T20:08:27.443Z,63.84
2019-01-17T20:11:00.923Z,64.30
2019-01-17T20:13:35.320Z,65.33
2019-01-17T20:16:09.621Z,65.05
2019-01-17T20:18:43.504Z,65.21
2019-01-17T20:21:18.024Z,65.28
2019-01-17T20:23:51.288Z,65.06
2019-01-17T20:26:24.628Z,64.95
2019-01-17T20:28:58.739Z,64.34
2019-01-17T20:31:32.597Z,64.18
2019-01-17T20:34:05.349Z,64.24
2019-01-17T20:36:38.437Z,64.71
2019-01-17T20:39:11.665Z,64.94
2019-01-17T20:41:44.261Z,64.87
2019-01-17T20:44:17.737Z,64.56
2019-01-17T20:46:51.015Z,64.78
2019-01-17T20:49:24.373Z,64.50
2019-01-17T20:51:58.697Z,63.91
2019-01-17T20:54:31.938Z,64.01
2019-01-17T20:57:07.091Z,64.11
2019-01-17T20:59:40.652Z,63.63
2019-01-17T21:02:21.951Z,63.62
2019-01-17T21:04:55.810Z,63.12
2019-01-17T21:07:29.557Z,63.31
2019-01-17T21:10:03.339Z,63.22
2019-01-17T21:12:36.666Z,63.03
2019-01-17T21:15:14.526Z,62.63
2019-01-17T21:17:48.100Z,62.48
2019-01-17T21:20:21.695Z,62.38
2019-01-17T21:22:54.905Z,63.03
2019-01-17T21:25:28.170Z,62.98
2019-01-17T21:28:01.267Z,62.43
2019-01-17T21:30:33.274Z,62.55
2019-01-17T21:33:07.971Z,62.86
2019-01-17T21:35:41.438Z,63.65
2019-01-17T21:38:14.707Z,64.20
2019-01-17T21:40:48.209Z,63.80
2019-01-17T21:43:21.535Z,63.84
2019-01-17T21:45:55.167Z,64.02
2019-01-17T21:48:28.935Z,63.98
2019-01-17T21:51:01.753Z,64.07
2019-01-17T21:53:34.973Z,63.72
2019-01-17T21:56:08.203Z,62.96
2019-01-17T21:58:41.425Z,63.70
2019-01-17T22:01:14.860Z,63.24
2019-01-17T22:03:48.303Z,63.08
2019-01-17T22:06:20.782Z,62.47
2019-01-17T22:08:53.308Z,63.50
2019-01-17T22:11:26.427Z,63.71
2019-01-17T22:13:58.800Z,63.92
2019-01-17T22:16:46.564Z,64.18
2019-01-17T22:19:29.588Z,63.46
2019-01-17T22:22:07.814Z,63.74
2019-01-17T22:24:43.012Z,63.80
2019-01-17T22:27:16.244Z,62.86
2019-01-17T22:29:49.239Z,62.53
2019-01-17T22:32:21.538Z,61.90
2019-01-17T22:34:54.834Z,62.24
2019-01-17T22:37:28.075Z,62.40
2019-01-17T22:40:00.836Z,62.57
2019-01-17T22:42:35.104Z,62.92
2019-01-17T22:45:10.664Z,63.66
2019-01-17T22:47:43.996Z,63.71
2019-01-17T22:50:17.709Z,63.60
2019-01-17T22:52:50.939Z,63.81
2019-01-17T22:55:24.786Z,63.47
2019-01-17T22:57:58.031Z,64.01
2019-01-17T23:00:55.649Z,63.90
2019-01-17T23:03:31.958Z,63.58
2019-01-17T23:06:05.252Z,63.93
2019-01-17T23:08:37.768Z,64.29
2019-01-17T23:11:10.734Z,64.55
2019-01-17T23:13:43.568Z,65.45
2019-01-17T23:16:21.062Z,66.28
2019-01-17T23:18:54.406Z,66.60
2019-01-17T23:21:27.410Z,66.89
2019-01-17T23:23:59.647Z,66.51
2019-01-17T23:26:32.606Z,65.35
2019-01-17T23:29:05.864Z,65.78
2019-01-17T23:31:38.488Z,65.59
2019-01-17T23:34:11.829Z,65.56
2019-01-17T23:36:48.745Z,65.15
2019-01-17T23:39:19.624Z,64.30
2019-01-17T23:41:52.339Z,64.07
2019-01-17T23:44:25.617Z,63.67
2019-01-17T23:46:58.706Z,63.67
2019-01-17T23:49:31.960Z,63.61
2019-01-17T23:52:05.215Z,63.82
2019-01-17T23:54:38.160Z,63.68
2019-01-17T23:57:10.301Z,63.89
2019-01-17T23:59:44.005Z,64.16
